createdAt,value
2022-10-19T00:01:15.510Z,84.63
2022-10-19T00:03:43.615Z,83.86
2022-10-19T00:06:32.124Z,84.02
2022-10-19T00:09:02.466Z,83.76
2022-10-19T00:11:31.617Z,84.33
2022-10-19T00:13:59.636Z,84.29
2022-10-19T00:16:28.124Z,84.10
2022-10-19T00:18:59.607Z,83.89
2022-10-19T00:21:27.110Z,84.43
2022-10-19T00:23:54.125Z,84.09
2022-10-19T00:26:21.231Z,84.02
2022-10-19T00:28:48.309Z,84.85
2022-10-19T00:31:17.292Z,84.79
2022-10-19T00:33:48.045Z,84.87
2022-10-19T00:36:21.885Z,83.96
2022-10-19T00:38:49.310Z,83.79
2022-10-19T00:41:18.565Z,84.71
2022-10-19T00:43:58.992Z,83.69
2022-10-19T00:46:27.814Z,84.31
2022-10-19T00:49:01.218Z,83.67
2022-10-19T00:51:30.578Z,84.45
2022-10-19T00:53:58.351Z,83.90
2022-10-19T00:56:25.723Z,84.58
2022-10-19T00:58:53.105Z,84.49
2022-10-19T01:01:23.302Z,84.58
2022-10-19T01:03:50.420Z,84.43
2022-10-19T01:06:18.957Z,84.67
2022-10-19T01:08:46.258Z,84.65
2022-10-19T01:11:27.306Z,84.81
2022-10-19T01:14:28.681Z,84.60
2022-10-19T01:17:23.036Z,84.63
2022-10-19T01:20:08.282Z,85.08
2022-10-19T01:23:10.657Z,84.78
2022-10-19T01:26:14.810Z,84.57
2022-10-19T01:29:16.433Z,84.17
2022-10-19T01:31:48.777Z,84.29
2022-10-19T01:34:26.920Z,84.34
2022-10-19T01:37:23.820Z,84.85
2022-10-19T01:39:55.954Z,84.54
2022-10-19T01:42:29.716Z,85.35
2022-10-19T01:45:18.207Z,85.12
2022-10-19T01:48:11.348Z,84.78
2022-10-19T01:51:04.615Z,84.73
2022-10-19T01:53:41.137Z,84.66
2022-10-19T01:56:09.997Z,84.90
2022-10-19T01:58:39.806Z,85.05
2022-10-19T02:03:43.740Z,84.56
2022-10-19T02:06:13.412Z,84.98
2022-10-19T02:08:52.468Z,84.63
2022-10-19T02:11:22.165Z,85.11
2022-10-19T02:13:58.301Z,85.04
2022-10-19T02:16:34.953Z,84.02
2022-10-19T02:19:03.345Z,84.02
2022-10-19T02:21:31.966Z,83.98
2022-10-19T02:23:59.217Z,84.52
2022-10-19T02:26:27.009Z,84.70
2022-10-19T02:28:56.275Z,84.31
2022-10-19T02:31:23.950Z,85.07
2022-10-19T02:33:51.189Z,84.64
2022-10-19T02:36:18.960Z,84.72
2022-10-19T02:38:46.040Z,84.45
2022-10-19T02:41:24.730Z,84.43
2022-10-19T02:43:58.548Z,84.04
2022-10-19T02:46:32.753Z,84.28
2022-10-19T02:49:02.257Z,84.91
2022-10-19T02:51:34.746Z,84.47
2022-10-19T02:54:05.147Z,84.86
2022-10-19T02:56:34.464Z,84.65
2022-10-19T02:59:02.194Z,84.54
2022-10-19T03:01:29.345Z,84.57
2022-10-19T03:03:56.374Z,84.38
2022-10-19T03:06:23.674Z,84.45
2022-10-19T03:08:51.258Z,85.23
2022-10-19T03:11:18.130Z,84.58
2022-10-19T03:13:45.350Z,84.56
2022-10-19T03:16:13.546Z,84.45
2022-10-19T03:18:40.752Z,84.65
2022-10-19T03:21:10.713Z,84.50
2022-10-19T03:23:38.826Z,85.11
2022-10-19T03:26:08.756Z,84.77
2022-10-19T03:28:38.757Z,85.48
2022-10-19T03:31:05.988Z,84.82
2022-10-19T03:33:33.156Z,85.29
2022-10-19T03:36:23.861Z,85.41
2022-10-19T03:38:56.598Z,85.44
2022-10-19T03:41:25.763Z,85.63
2022-10-19T03:43:52.948Z,85.79
2022-10-19T03:46:21.022Z,85.85
2022-10-19T03:48:47.721Z,85.77
2022-10-19T03:51:17.734Z,86.29
2022-10-19T03:53:46.208Z,86.01
2022-10-19T03:56:16.487Z,86.35
2022-10-19T03:58:45.128Z,86.43
2022-10-19T04:01:21.051Z,85.64
2022-10-19T04:03:48.181Z,84.83
2022-10-19T04:06:21.288Z,85.53
2022-10-19T04:08:50.493Z,85.60
2022-10-19T04:11:20.641Z,85.31
2022-10-19T04:13:51.732Z,85.40
2022-10-19T04:16:20.293Z,85.36
2022-10-19T04:18:47.810Z,85.58
2022-10-19T04:21:23.654Z,85.21
2022-10-19T04:23:53.045Z,84.92
2022-10-19T04:26:20.946Z,85.45
2022-10-19T04:28:48.150Z,85.32
2022-10-19T04:31:15.124Z,85.59
2022-10-19T04:33:42.547Z,86.12
2022-10-19T04:36:11.706Z,85.79
2022-10-19T04:38:39.290Z,85.94
2022-10-19T04:41:09.682Z,85.65
2022-10-19T04:43:37.656Z,85.61
2022-10-19T04:46:08.573Z,85.89
2022-10-19T04:48:37.588Z,85.84
2022-10-19T04:51:05.699Z,85.72
2022-10-19T04:53:33.304Z,86.02
2022-10-19T04:56:00.816Z,86.05
2022-10-19T04:58:27.826Z,86.18
2022-10-19T05:00:55.123Z,86.14
2022-10-19T05:03:22.080Z,86.23
2022-10-19T05:05:49.232Z,86.16
2022-10-19T05:08:16.570Z,86.10
2022-10-19T05:10:47.013Z,86.10
2022-10-19T05:13:17.893Z,86.04
2022-10-19T05:15:44.791Z,85.66
2022-10-19T05:18:12.210Z,85.84
2022-10-19T05:20:39.050Z,86.38
2022-10-19T05:23:07.373Z,85.69
2022-10-19T05:25:34.455Z,85.75
2022-10-19T05:28:01.511Z,85.71
2022-10-19T05:30:28.475Z,85.73
2022-10-19T05:32:55.413Z,86.51
2022-10-19T05:35:22.796Z,85.92
2022-10-19T05:37:55.026Z,86.14
2022-10-19T05:40:21.959Z,86.47
2022-10-19T05:42:48.886Z,86.49
2022-10-19T05:45:16.162Z,86.69
2022-10-19T05:47:43.041Z,86.96
2022-10-19T05:50:10.398Z,87.53
2022-10-19T05:52:37.352Z,87.50
2022-10-19T05:55:04.690Z,87.38
2022-10-19T05:57:33.357Z,87.64
2022-10-19T06:00:00.584Z,89.05
2022-10-19T06:02:27.567Z,89.08
2022-10-19T06:04:54.673Z,89.07
2022-10-19T06:07:21.762Z,91.69
2022-10-19T06:09:48.706Z,91.73
2022-10-19T06:12:16.363Z,92.11
2022-10-19T06:14:43.793Z,93.09
2022-10-19T06:17:11.002Z,92.67
2022-10-19T06:19:38.289Z,94.25
2022-10-19T06:22:05.295Z,94.21
2022-10-19T06:24:32.513Z,92.66
2022-10-19T06:26:59.584Z,93.67
2022-10-19T06:29:26.565Z,91.58
2022-10-19T06:31:54.738Z,91.95
2022-10-19T06:34:21.808Z,91.45
2022-10-19T06:36:48.741Z,90.90
2022-10-19T06:39:15.982Z,88.31
2022-10-19T06:41:42.916Z,88.79
2022-10-19T06:44:10.065Z,88.06
2022-10-19T06:46:36.985Z,86.79
2022-10-19T06:49:04.028Z,84.86
2022-10-19T06:51:34.382Z,82.42
2022-10-19T06:54:01.463Z,80.58
2022-10-19T06:56:28.645Z,80.25
2022-10-19T06:58:56.096Z,79.20
2022-10-19T07:01:23.402Z,78.79
2022-10-19T07:03:51.807Z,76.90
2022-10-19T07:06:19.315Z,74.81
2022-10-19T07:08:46.341Z,72.49
2022-10-19T07:11:19.952Z,69.67
2022-10-19T07:13:47.283Z,68.86
2022-10-19T07:16:20.813Z,68.84
2022-10-19T07:18:50.349Z,67.74
2022-10-19T07:21:18.655Z,67.94
2022-10-19T07:23:47.781Z,67.52
2022-10-19T07:26:23.592Z,65.96
2022-10-19T07:28:51.284Z,64.72
2022-10-19T07:31:21.737Z,64.87
2022-10-19T07:33:53.840Z,65.06
2022-10-19T07:36:21.349Z,62.22
2022-10-19T07:38:48.268Z,62.34
2022-10-19T07:41:17.417Z,61.17
2022-10-19T07:43:46.444Z,60.95
2022-10-19T07:46:17.013Z,58.11
2022-10-19T07:48:45.290Z,57.41
2022-10-19T07:51:14.509Z,58.10
2022-10-19T07:53:42.406Z,56.70
2022-10-19T07:56:12.799Z,55.23
2022-10-19T07:58:40.584Z,52.63
2022-10-19T08:01:10.710Z,50.08
2022-10-19T08:06:27.679Z,49.20
2022-10-19T08:08:55.677Z,49.57
2022-10-19T08:11:31.160Z,47.23
2022-10-19T08:14:03.402Z,47.15
2022-10-19T08:16:40.556Z,47.96
2022-10-19T08:19:12.855Z,45.92
2022-10-19T08:21:42.928Z,45.19
2022-10-19T08:24:12.332Z,44.57
2022-10-19T08:26:40.336Z,43.83
2022-10-19T08:29:20.211Z,43.55
2022-10-19T08:31:48.682Z,44.34
2022-10-19T08:34:16.484Z,43.58
2022-10-19T08:36:43.886Z,42.70
2022-10-19T08:39:16.479Z,42.35
2022-10-19T08:41:55.736Z,42.63
2022-10-19T08:44:44.355Z,42.50
2022-10-19T08:47:32.900Z,42.34
2022-10-19T08:50:00.365Z,40.56
2022-10-19T08:52:34.770Z,40.36
2022-10-19T08:55:28.518Z,39.62
2022-10-19T08:58:46.464Z,40.26
2022-10-19T09:01:19.295Z,39.93
2022-10-19T09:03:56.409Z,39.59
2022-10-19T09:06:32.048Z,39.38
2022-10-19T09:09:00.176Z,39.00
2022-10-19T09:11:37.061Z,39.52
2022-10-19T09:14:32.655Z,39.14
2022-10-19T09:17:14.919Z,37.87
2022-10-19T09:19:41.974Z,38.56
2022-10-19T09:22:16.404Z,37.96
2022-10-19T09:24:57.821Z,37.44
2022-10-19T09:27:27.165Z,37.29
2022-10-19T09:29:58.620Z,36.82
2022-10-19T09:32:38.345Z,36.69
2022-10-19T09:35:39.980Z,36.52
2022-10-19T09:38:08.026Z,36.55
2022-10-19T09:40:35.864Z,36.52
2022-10-19T09:43:19.835Z,35.89
2022-10-19T09:46:11.671Z,35.43
2022-10-19T09:48:51.019Z,34.78
2022-10-19T09:51:19.236Z,34.83
2022-10-19T09:53:48.950Z,34.49
2022-10-19T09:56:22.013Z,34.58
2022-10-19T09:58:54.761Z,34.27
2022-10-19T10:01:43.030Z,35.58
2022-10-19T10:04:18.817Z,33.82
2022-10-19T10:06:48.574Z,33.01
2022-10-19T10:09:29.088Z,32.89
2022-10-19T10:12:00.079Z,32.23
2022-10-19T10:14:33.161Z,32.32
2022-10-19T10:17:07.195Z,32.01
2022-10-19T10:19:36.369Z,31.80
2022-10-19T10:22:04.590Z,30.51
2022-10-19T10:24:33.712Z,30.70
2022-10-19T10:27:06.677Z,31.01
2022-10-19T10:29:37.708Z,31.70
2022-10-19T10:32:19.821Z,31.37
2022-10-19T10:35:01.018Z,30.84
2022-10-19T10:37:45.008Z,31.22
2022-10-19T10:40:23.387Z,30.67
2022-10-19T10:42:53.832Z,31.10
2022-10-19T10:45:29.531Z,29.29
2022-10-19T10:47:57.185Z,29.78
2022-10-19T10:50:23.979Z,29.85
2022-10-19T10:53:07.628Z,30.13
2022-10-19T10:55:34.955Z,30.54
2022-10-19T10:58:34.645Z,29.92
2022-10-19T11:01:07.865Z,29.41
2022-10-19T11:03:38.137Z,29.81
2022-10-19T11:06:05.507Z,29.31
2022-10-19T11:08:49.637Z,29.97
2022-10-19T11:11:19.489Z,29.75
2022-10-19T11:13:52.157Z,29.78
2022-10-19T11:16:24.289Z,29.84
2022-10-19T11:18:57.332Z,29.40
2022-10-19T11:21:48.417Z,28.66
2022-10-19T11:27:43.576Z,30.02
2022-10-19T11:30:25.507Z,29.40
2022-10-19T11:33:01.839Z,29.61
2022-10-19T11:35:40.301Z,29.93
2022-10-19T11:38:35.086Z,28.82
2022-10-19T11:41:27.102Z,29.37
2022-10-19T11:44:19.724Z,28.68
2022-10-19T11:46:55.986Z,29.51
2022-10-19T11:49:49.134Z,29.44
2022-10-19T11:52:22.699Z,29.51
2022-10-19T11:55:23.782Z,30.28
2022-10-19T11:58:21.952Z,30.31
2022-10-19T12:01:08.923Z,29.58
2022-10-19T12:03:47.840Z,29.82
2022-10-19T12:06:14.736Z,29.55
2022-10-19T12:08:42.576Z,29.58
2022-10-19T12:11:26.378Z,28.49
2022-10-19T12:13:58.551Z,29.12
2022-10-19T12:16:50.911Z,29.47
2022-10-19T12:19:29.596Z,29.62
2022-10-19T12:22:02.089Z,29.43
2022-10-19T12:24:31.021Z,29.52
2022-10-19T12:26:59.699Z,29.36
2022-10-19T12:29:40.277Z,29.50
2022-10-19T12:32:08.543Z,30.05
2022-10-19T12:34:40.600Z,29.82
2022-10-19T12:37:20.094Z,30.17
2022-10-19T12:40:19.128Z,30.71
2022-10-19T12:43:10.931Z,30.60
2022-10-19T12:46:05.245Z,30.33
2022-10-19T12:48:32.520Z,30.19
2022-10-19T12:51:02.816Z,29.69
2022-10-19T12:53:44.977Z,29.71
2022-10-19T12:56:11.882Z,29.34
2022-10-19T12:58:46.691Z,29.50
2022-10-19T13:01:25.035Z,30.30
2022-10-19T13:04:07.207Z,29.89
2022-10-19T13:06:37.188Z,29.75
2022-10-19T13:09:08.484Z,29.87
2022-10-19T13:11:40.297Z,29.15
2022-10-19T13:14:53.491Z,29.46
2022-10-19T13:17:40.837Z,30.38
2022-10-19T13:20:13.805Z,29.29
2022-10-19T13:23:03.907Z,29.50
2022-10-19T13:25:32.987Z,30.04
2022-10-19T13:28:22.939Z,30.73
2022-10-19T13:30:49.848Z,30.61
2022-10-19T13:33:28.692Z,30.44
2022-10-19T13:36:02.767Z,30.31
2022-10-19T13:41:22.020Z,29.89
2022-10-19T13:43:52.318Z,29.79
2022-10-19T13:46:30.062Z,29.28
2022-10-19T13:49:34.615Z,28.85
2022-10-19T13:52:20.748Z,30.26
2022-10-19T13:54:53.933Z,30.23
2022-10-19T13:57:40.941Z,29.44
2022-10-19T14:00:25.406Z,30.41
2022-10-19T14:03:33.959Z,29.55
2022-10-19T14:06:06.570Z,29.88
2022-10-19T14:08:57.852Z,29.84
2022-10-19T14:11:43.279Z,29.23
2022-10-19T14:14:22.735Z,29.71
2022-10-19T14:16:58.429Z,29.52
2022-10-19T14:19:41.939Z,30.18
2022-10-19T14:22:34.206Z,30.50
2022-10-19T14:25:22.604Z,30.64
2022-10-19T14:27:59.229Z,31.42
2022-10-19T14:30:31.746Z,30.75
2022-10-19T14:33:02.310Z,31.01
2022-10-19T14:35:34.596Z,31.98
2022-10-19T14:38:01.845Z,32.96
2022-10-19T14:40:34.858Z,36.45
2022-10-19T14:43:19.319Z,34.45
2022-10-19T14:46:13.927Z,35.51
2022-10-19T14:48:45.769Z,36.25
2022-10-19T14:51:41.735Z,36.79
2022-10-19T14:54:20.075Z,36.88
2022-10-19T14:56:55.235Z,36.42
2022-10-19T14:59:25.264Z,37.94
2022-10-19T15:01:55.746Z,38.16
2022-10-19T15:04:30.199Z,38.97
2022-10-19T15:06:59.019Z,40.11
2022-10-19T15:09:47.709Z,42.42
2022-10-19T15:12:18.332Z,42.74
2022-10-19T15:14:46.503Z,42.82
2022-10-19T15:17:26.173Z,43.94
2022-10-19T15:19:55.990Z,44.80
2022-10-19T15:22:37.821Z,44.56
2022-10-19T15:25:07.996Z,46.54
2022-10-19T15:27:34.844Z,47.57
2022-10-19T15:30:05.797Z,49.12
2022-10-19T15:32:36.568Z,50.29
2022-10-19T15:35:31.104Z,51.67
2022-10-19T15:38:15.395Z,52.37
2022-10-19T15:40:55.844Z,52.99
2022-10-19T15:43:34.550Z,54.55
2022-10-19T15:46:06.956Z,55.49
2022-10-19T15:48:51.074Z,54.73
2022-10-19T15:51:23.679Z,54.90
2022-10-19T15:53:59.185Z,55.13
2022-10-19T15:56:28.982Z,55.86
2022-10-19T15:58:59.416Z,55.36
2022-10-19T16:01:29.679Z,56.99
2022-10-19T16:03:57.324Z,56.98
2022-10-19T16:06:29.436Z,57.84
2022-10-19T16:08:57.378Z,58.33
2022-10-19T16:11:25.428Z,58.97
2022-10-19T16:13:52.542Z,59.58
2022-10-19T16:16:23.738Z,60.81
2022-10-19T16:18:51.223Z,61.38
2022-10-19T16:21:20.291Z,61.47
2022-10-19T16:23:47.396Z,61.71
2022-10-19T16:26:16.174Z,61.84
2022-10-19T16:28:43.565Z,63.38
2022-10-19T16:31:11.191Z,63.17
2022-10-19T16:33:38.164Z,64.20
2022-10-19T16:36:10.128Z,63.24
2022-10-19T16:38:37.552Z,64.48
2022-10-19T16:41:07.654Z,64.53
2022-10-19T16:43:35.731Z,65.40
2022-10-19T16:46:02.745Z,64.73
2022-10-19T16:48:29.818Z,65.83
2022-10-19T16:51:06.134Z,65.38
2022-10-19T16:53:38.188Z,66.46
2022-10-19T16:56:11.380Z,66.40
2022-10-19T16:58:39.200Z,67.00
2022-10-19T17:01:16.746Z,67.11
2022-10-19T17:03:45.283Z,67.18
2022-10-19T17:06:13.210Z,67.38
2022-10-19T17:11:30.892Z,68.39
2022-10-19T17:14:00.363Z,69.00
2022-10-19T17:16:29.863Z,68.95
2022-10-19T17:18:59.245Z,69.39
2022-10-19T17:21:29.173Z,69.86
2022-10-19T17:24:01.023Z,69.54
2022-10-19T17:26:34.499Z,70.21
2022-10-19T17:29:01.764Z,69.68
2022-10-19T17:31:29.461Z,70.88
2022-10-19T17:33:57.206Z,70.30
2022-10-19T17:36:30.294Z,71.18
2022-10-19T17:39:00.042Z,71.22
2022-10-19T17:41:28.227Z,71.42
2022-10-19T17:43:55.877Z,71.63
2022-10-19T17:46:29.512Z,72.06
2022-10-19T17:48:57.342Z,72.19
2022-10-19T17:51:28.709Z,72.50
2022-10-19T17:54:01.403Z,72.18
2022-10-19T17:56:28.973Z,72.60
2022-10-19T17:58:59.654Z,72.81
2022-10-19T18:01:27.090Z,73.06
2022-10-19T18:03:54.279Z,73.56
2022-10-19T18:06:24.695Z,72.97
2022-10-19T18:08:53.772Z,74.10
2022-10-19T18:11:32.244Z,74.25
2022-10-19T18:14:01.335Z,74.50
2022-10-19T18:16:31.370Z,75.46
2022-10-19T18:19:00.504Z,75.45
2022-10-19T18:21:31.249Z,75.82
2022-10-19T18:24:00.378Z,76.01
2022-10-19T18:26:29.449Z,75.75
2022-10-19T18:28:57.526Z,76.07
2022-10-19T18:31:25.761Z,75.82
2022-10-19T18:34:02.102Z,75.37
2022-10-19T18:36:30.793Z,76.05
2022-10-19T18:39:02.464Z,75.44
2022-10-19T18:41:30.218Z,75.42
2022-10-19T18:43:59.551Z,76.37
2022-10-19T18:46:26.838Z,75.54
2022-10-19T18:48:54.721Z,76.16
2022-10-19T18:51:23.645Z,76.54
2022-10-19T18:53:51.142Z,77.28
2022-10-19T18:56:20.000Z,77.35
2022-10-19T18:58:50.343Z,77.45
2022-10-19T19:01:30.248Z,76.74
2022-10-19T19:04:20.450Z,77.25
2022-10-19T19:06:48.579Z,77.73
2022-10-19T19:09:18.051Z,78.40
2022-10-19T19:11:45.232Z,77.85
2022-10-19T19:14:16.034Z,79.02
2022-10-19T19:16:45.326Z,78.15
2022-10-19T19:19:15.151Z,78.02
2022-10-19T19:21:47.103Z,79.18
2022-10-19T19:24:19.544Z,78.59
2022-10-19T19:26:52.637Z,79.09
2022-10-19T19:29:20.957Z,78.65
2022-10-19T19:31:48.515Z,78.93
2022-10-19T19:34:15.962Z,79.13
2022-10-19T19:36:47.965Z,78.63
2022-10-19T19:39:19.175Z,78.14
2022-10-19T19:41:46.865Z,79.29
2022-10-19T19:44:14.300Z,79.22
2022-10-19T19:46:41.324Z,78.88
2022-10-19T19:49:08.776Z,79.25
2022-10-19T19:51:35.991Z,78.70
2022-10-19T19:54:03.401Z,78.90
2022-10-19T19:56:31.161Z,80.08
2022-10-19T19:59:00.433Z,78.94
2022-10-19T20:01:27.622Z,80.13
2022-10-19T20:03:59.108Z,79.93
2022-10-19T20:06:26.888Z,80.14
2022-10-19T20:08:56.519Z,80.52
2022-10-19T20:11:25.959Z,80.65
2022-10-19T20:13:54.667Z,80.23
2022-10-19T20:16:29.187Z,80.68
2022-10-19T20:19:05.577Z,80.58
2022-10-19T20:21:33.959Z,81.63
2022-10-19T20:24:02.148Z,82.63
2022-10-19T20:26:29.571Z,81.69
2022-10-19T20:28:59.394Z,83.05
2022-10-19T20:33:58.658Z,82.66
2022-10-19T20:36:26.632Z,84.18
2022-10-19T20:38:56.442Z,82.47
2022-10-19T20:41:25.830Z,83.86
2022-10-19T20:43:53.911Z,82.70
2022-10-19T20:46:22.497Z,83.98
2022-10-19T20:48:50.532Z,83.13
2022-10-19T20:51:25.907Z,84.97
2022-10-19T20:53:57.557Z,85.35
2022-10-19T20:56:31.009Z,85.21
2022-10-19T21:01:38.156Z,85.90
2022-10-19T21:04:07.571Z,85.77
2022-10-19T21:06:39.057Z,85.72
2022-10-19T21:09:06.279Z,86.15
2022-10-19T21:11:38.061Z,85.81
2022-10-19T21:14:12.402Z,86.73
2022-10-19T21:16:39.915Z,87.43
2022-10-19T21:19:12.040Z,86.53
2022-10-19T21:21:42.191Z,86.11
2022-10-19T21:24:13.014Z,87.00
2022-10-19T21:26:40.323Z,86.60
2022-10-19T21:29:09.849Z,87.37
2022-10-19T21:31:42.998Z,86.59
2022-10-19T21:34:22.753Z,86.80
2022-10-19T21:36:50.314Z,85.88
2022-10-19T21:39:18.040Z,86.22
2022-10-19T21:41:45.131Z,86.85
2022-10-19T21:44:13.095Z,86.65
2022-10-19T21:46:40.512Z,85.58
2022-10-19T21:49:07.601Z,86.33
2022-10-19T21:51:42.431Z,87.10
2022-10-19T21:54:13.960Z,88.60
2022-10-19T21:56:41.189Z,89.95
2022-10-19T21:59:08.630Z,90.70
2022-10-19T22:01:40.119Z,92.13
2022-10-19T22:04:12.763Z,95.00
2022-10-19T22:06:43.698Z,93.99
2022-10-19T22:09:15.322Z,92.87
2022-10-19T22:11:42.839Z,93.52
2022-10-19T22:14:11.887Z,93.69
2022-10-19T22:16:40.676Z,93.48
2022-10-19T22:19:08.207Z,93.09
2022-10-19T22:21:41.670Z,93.84
2022-10-19T22:24:20.726Z,93.13
2022-10-19T22:26:51.172Z,92.05
2022-10-19T22:29:18.926Z,91.76
2022-10-19T22:31:48.130Z,91.69
2022-10-19T22:34:17.227Z,91.67
2022-10-19T22:36:45.130Z,91.69
2022-10-19T22:39:12.533Z,92.79
2022-10-19T22:41:39.451Z,93.59
2022-10-19T22:44:06.807Z,93.07
2022-10-19T22:46:33.790Z,91.55
2022-10-19T22:49:00.878Z,91.64
2022-10-19T22:51:27.932Z,92.10
2022-10-19T22:53:55.411Z,92.35
2022-10-19T22:56:22.387Z,92.22
2022-10-19T22:58:49.810Z,91.90
2022-10-19T23:01:17.339Z,92.95
2022-10-19T23:03:44.825Z,91.07
2022-10-19T23:06:13.923Z,92.90
2022-10-19T23:08:41.004Z,92.11
2022-10-19T23:11:08.052Z,92.63
2022-10-19T23:13:35.010Z,93.23
2022-10-19T23:16:02.210Z,92.55
2022-10-19T23:18:33.937Z,93.91
2022-10-19T23:21:06.185Z,93.01
2022-10-19T23:23:34.184Z,92.43
2022-10-19T23:26:05.471Z,93.03
2022-10-19T23:28:34.878Z,93.87
2022-10-19T23:31:19.855Z,93.93
2022-10-19T23:33:47.873Z,93.64
2022-10-19T23:36:20.293Z,95.11
2022-10-19T23:38:48.934Z,94.50
2022-10-19T23:41:16.964Z,94.58
2022-10-19T23:43:43.758Z,95.79
2022-10-19T23:46:11.176Z,95.64
2022-10-19T23:48:41.178Z,96.06
2022-10-19T23:51:23.310Z,95.81
2022-10-19T23:53:52.871Z,96.73
2022-10-19T23:56:22.981Z,97.26
2022-10-19T23:58:50.591Z,100.00
